Manchester, VT

11:17 PM EDT on July 30, 2016 (GMT -0400)
Maple Street School, Manchester Center, VT | | Change Station

Elev 761 ft 43.17 °N, 73.06 °W | Updated 25 seconds ago

Overcast
Overcast
69.6 °F
Feels Like 69.6 °F
N
0.0
Wind Variable Wind from WSW
Gusts 0.0 mph

Today
High -- | Low -- °F
--% Chance of Precip.
Yesterday
High -- | Low -- °F
Precip. -- in
Pressure 30.08 in
Visibility 3.0 miles
Clouds Overcast 3900 ft
Dew Point 62 °F
Humidity 77%
Rainfall 0.00 in
Snow Depth Not available.
5:41 AM 8:15 PM
Waning Crescent, 9% visible
METAR KDDH 310254Z AUTO 14005KT 3SM RA BR OVC039 19/18 A3010 RMK AO2 SLP186 P0005 60008 T01940178 51014 TSNO
Pressure 30.08 in
Visibility 3.0 miles
Clouds Overcast 3900 ft
Dew Point 62 °F
Humidity 77%
Rainfall 0.00 in
Snow Depth Not available.
5:41 AM 8:15 PM
Waning Crescent, 9% visible
METAR KDDH 310254Z AUTO 14005KT 3SM RA BR OVC039 19/18 A3010 RMK AO2 SLP186 P0005 60008 T01940178 51014 TSNO

10-Day Weather Forecast

Almanac

Astronomy

Jul. 30, 2016 Rise Set
Actual Time
Civil Twilight
Nautical Twilight
Astronomical Twilight
Moon
Length of Visible Light
Length of Day
Tomorrow will be .
, % of the Moon is Illuminated

Today's Extremes

State Highs State Lows

Community

WunderPhotos

Upload Photos

1,928,729 photos uploaded!

WunderBlog® & News

Nearby

Air Quality

  Air Quality AQ Index Pollutant
Not available.

Snow Depth

Station Depth Elevation

Earthquake Activity

City Distance Mag. Time & Date
Minimum magnitude displayed is 2.5.

Coastal Water Temperatures

Place Temperature

Stations

Nearby Weather Stations

Station Location Temp. Windchill Dew Point Humidity Wind Precip. Elev Updated Type
                   

Watches & Warnings

There are currently no watches in effect.